sensor_id;sensor_type;location;lat;lon;timestamp;temperature;humidity
24450;DHT22;13349;50.984;5.822;2023-04-25T00:00:17;7.20;1.00
24450;DHT22;13349;50.984;5.822;2023-04-25T00:02:45;7.20;1.00
24450;DHT22;13349;50.984;5.822;2023-04-25T00:05:12;7.20;1.00
24450;DHT22;13349;50.984;5.822;2023-04-25T00:07:40;7.10;32.50
24450;DHT22;13349;50.984;5.822;2023-04-25T00:10:08;7.10;72.30
24450;DHT22;13349;50.984;5.822;2023-04-25T00:12:36;7.00;90.60
24450;DHT22;13349;50.984;5.822;2023-04-25T00:15:04;7.00;87.00
24450;DHT22;13349;50.984;5.822;2023-04-25T00:17:31;6.90;99.90
24450;DHT22;13349;50.984;5.822;2023-04-25T00:20:00;6.80;99.90
24450;DHT22;13349;50.984;5.822;2023-04-25T00:22:30;6.80;99.90
24450;DHT22;13349;50.984;5.822;2023-04-25T00:24:56;6.70;99.90
24450;DHT22;13349;50.984;5.822;2023-04-25T00:27:25;6.70;99.90
24450;DHT22;13349;50.984;5.822;2023-04-25T00:29:52;6.70;99.90
24450;DHT22;13349;50.984;5.822;2023-04-25T00:32:19;6.80;1.00
24450;DHT22;13349;50.984;5.822;2023-04-25T00:34:46;6.80;1.00
24450;DHT22;13349;50.984;5.822;2023-04-25T00:37:14;6.80;1.00
24450;DHT22;13349;50.984;5.822;2023-04-25T00:39:41;6.80;1.00
24450;DHT22;13349;50.984;5.822;2023-04-25T00:42:08;6.80;1.00
24450;DHT22;13349;50.984;5.822;2023-04-25T00:44:34;6.70;1.00
24450;DHT22;13349;50.984;5.822;2023-04-25T00:47:02;6.70;1.00
24450;DHT22;13349;50.984;5.822;2023-04-25T00:49:29;6.70;1.00
24450;DHT22;13349;50.984;5.822;2023-04-25T00:51:56;6.70;1.00
24450;DHT22;13349;50.984;5.822;2023-04-25T00:54:24;6.70;1.00
24450;DHT22;13349;50.984;5.822;2023-04-25T00:56:51;6.80;1.00
24450;DHT22;13349;50.984;5.822;2023-04-25T00:59:19;6.80;1.00
24450;DHT22;13349;50.984;5.822;2023-04-25T01:01:46;6.80;1.00
24450;DHT22;13349;50.984;5.822;2023-04-25T01:04:13;6.70;1.00
24450;DHT22;13349;50.984;5.822;2023-04-25T01:06:40;6.70;1.00
24450;DHT22;13349;50.984;5.822;2023-04-25T01:09:06;6.70;1.00
24450;DHT22;13349;50.984;5.822;2023-04-25T01:11:36;6.80;1.00
24450;DHT22;13349;50.984;5.822;2023-04-25T01:14:03;6.80;1.00
24450;DHT22;13349;50.984;5.822;2023-04-25T01:16:30;6.80;1.00
24450;DHT22;13349;50.984;5.822;2023-04-25T01:18:58;6.80;1.00
24450;DHT22;13349;50.984;5.822;2023-04-25T01:21:27;6.70;1.00
24450;DHT22;13349;50.984;5.822;2023-04-25T01:23:55;6.70;1.00
24450;DHT22;13349;50.984;5.822;2023-04-25T01:26:22;6.70;93.50
24450;DHT22;13349;50.984;5.822;2023-04-25T01:28:49;6.70;99.90
24450;DHT22;13349;50.984;5.822;2023-04-25T01:31:15;6.70;99.90
24450;DHT22;13349;50.984;5.822;2023-04-25T01:33:44;6.70;99.90
24450;DHT22;13349;50.984;5.822;2023-04-25T01:36:11;6.70;99.90
24450;DHT22;13349;50.984;5.822;2023-04-25T01:38:40;6.80;99.90
24450;DHT22;13349;50.984;5.822;2023-04-25T01:41:07;6.80;99.90
24450;DHT22;13349;50.984;5.822;2023-04-25T01:43:34;6.70;99.90
24450;DHT22;13349;50.984;5.822;2023-04-25T01:46:01;6.70;99.90
24450;DHT22;13349;50.984;5.822;2023-04-25T01:48:27;6.70;99.90
24450;DHT22;13349;50.984;5.822;2023-04-25T01:50:54;6.70;99.90
24450;DHT22;13349;50.984;5.822;2023-04-25T01:53:21;6.70;99.90
24450;DHT22;13349;50.984;5.822;2023-04-25T01:55:49;6.70;99.90
24450;DHT22;13349;50.984;5.822;2023-04-25T01:58:16;6.70;99.90
24450;DHT22;13349;50.984;5.822;2023-04-25T02:00:43;6.70;99.90
24450;DHT22;13349;50.984;5.822;2023-04-25T02:03:10;6.70;1.00
24450;DHT22;13349;50.984;5.822;2023-04-25T02:05:37;6.70;1.00
24450;DHT22;13349;50.984;5.822;2023-04-25T02:08:06;6.70;1.00
24450;DHT22;13349;50.984;5.822;2023-04-25T02:10:34;6.70;1.00
24450;DHT22;13349;50.984;5.822;2023-04-25T02:13:02;6.60;1.00
24450;DHT22;13349;50.984;5.822;2023-04-25T02:15:29;6.60;1.00
24450;DHT22;13349;50.984;5.822;2023-04-25T02:17:56;6.50;1.00
24450;DHT22;13349;50.984;5.822;2023-04-25T02:20:25;6.50;1.00
24450;DHT22;13349;50.984;5.822;2023-04-25T02:22:52;6.50;1.00
24450;DHT22;13349;50.984;5.822;2023-04-25T02:25:19;6.50;1.00
24450;DHT22;13349;50.984;5.822;2023-04-25T02:27:46;6.50;42.70
24450;DHT22;13349;50.984;5.822;2023-04-25T02:30:15;6.50;99.90
24450;DHT22;13349;50.984;5.822;2023-04-25T02:32:42;6.50;99.90
24450;DHT22;13349;50.984;5.822;2023-04-25T02:35:08;6.50;99.90
24450;DHT22;13349;50.984;5.822;2023-04-25T02:37:36;6.50;99.90
24450;DHT22;13349;50.984;5.822;2023-04-25T02:40:04;6.50;99.90
24450;DHT22;13349;50.984;5.822;2023-04-25T02:42:31;6.50;99.90
24450;DHT22;13349;50.984;5.822;2023-04-25T02:44:58;6.50;99.90
24450;DHT22;13349;50.984;5.822;2023-04-25T02:47:26;6.40;99.90
24450;DHT22;13349;50.984;5.822;2023-04-25T02:49:53;6.40;99.90
24450;DHT22;13349;50.984;5.822;2023-04-25T02:52:20;6.40;99.90
24450;DHT22;13349;50.984;5.822;2023-04-25T02:54:47;6.20;1.00
24450;DHT22;13349;50.984;5.822;2023-04-25T02:57:14;6.20;1.00
24450;DHT22;13349;50.984;5.822;2023-04-25T02:59:41;6.20;1.00
24450;DHT22;13349;50.984;5.822;2023-04-25T03:02:08;6.20;1.00
24450;DHT22;13349;50.984;5.822;2023-04-25T03:04:36;6.20;1.00
24450;DHT22;13349;50.984;5.822;2023-04-25T03:07:03;6.20;1.00
24450;DHT22;13349;50.984;5.822;2023-04-25T03:09:30;6.20;1.00
24450;DHT22;13349;50.984;5.822;2023-04-25T03:11:57;6.20;1.00
24450;DHT22;13349;50.984;5.822;2023-04-25T03:14:24;6.20;1.00
24450;DHT22;13349;50.984;5.822;2023-04-25T03:16:50;6.30;17.60
24450;DHT22;13349;50.984;5.822;2023-04-25T03:19:17;6.20;1.00
24450;DHT22;13349;50.984;5.822;2023-04-25T03:21:47;6.20;98.80
24450;DHT22;13349;50.984;5.822;2023-04-25T03:24:14;6.20;99.90
24450;DHT22;13349;50.984;5.822;2023-04-25T03:26:41;6.20;99.90
24450;DHT22;13349;50.984;5.822;2023-04-25T03:29:08;6.10;99.90
24450;DHT22;13349;50.984;5.822;2023-04-25T03:31:35;6.20;99.90
24450;DHT22;13349;50.984;5.822;2023-04-25T03:34:02;6.10;1.00
24450;DHT22;13349;50.984;5.822;2023-04-25T03:36:29;6.10;1.00
24450;DHT22;13349;50.984;5.822;2023-04-25T03:38:57;6.00;1.00
24450;DHT22;13349;50.984;5.822;2023-04-25T03:41:24;6.00;1.00
24450;DHT22;13349;50.984;5.822;2023-04-25T03:43:51;6.00;1.00
24450;DHT22;13349;50.984;5.822;2023-04-25T03:46:18;6.00;1.00
24450;DHT22;13349;50.984;5.822;2023-04-25T03:48:45;6.00;1.00
24450;DHT22;13349;50.984;5.822;2023-04-25T03:51:11;6.00;99.90
24450;DHT22;13349;50.984;5.822;2023-04-25T03:53:38;6.00;99.90
24450;DHT22;13349;50.984;5.822;2023-04-25T03:56:07;5.90;1.00
24450;DHT22;13349;50.984;5.822;2023-04-25T03:58:35;5.90;1.00
24450;DHT22;13349;50.984;5.822;2023-04-25T04:01:01;6.00;1.00
24450;DHT22;13349;50.984;5.822;2023-04-25T04:03:32;6.00;1.00
24450;DHT22;13349;50.984;5.822;2023-04-25T04:05:59;6.10;1.00
24450;DHT22;13349;50.984;5.822;2023-04-25T04:08:26;6.10;1.00
24450;DHT22;13349;50.984;5.822;2023-04-25T04:10:53;6.00;1.00
24450;DHT22;13349;50.984;5.822;2023-04-25T04:13:21;6.10;19.10
24450;DHT22;13349;50.984;5.822;2023-04-25T04:15:48;6.00;99.90
24450;DHT22;13349;50.984;5.822;2023-04-25T04:18:16;6.00;99.90
24450;DHT22;13349;50.984;5.822;2023-04-25T04:20:43;6.10;99.90
24450;DHT22;13349;50.984;5.822;2023-04-25T04:23:10;6.00;99.90
24450;DHT22;13349;50.984;5.822;2023-04-25T04:25:37;6.00;99.90
24450;DHT22;13349;50.984;5.822;2023-04-25T04:28:05;6.00;99.90
24450;DHT22;13349;50.984;5.822;2023-04-25T04:30:34;6.00;99.90
24450;DHT22;13349;50.984;5.822;2023-04-25T04:33:01;6.00;99.90
24450;DHT22;13349;50.984;5.822;2023-04-25T04:35:28;6.00;1.00
24450;DHT22;13349;50.984;5.822;2023-04-25T04:37:55;6.00;1.00
24450;DHT22;13349;50.984;5.822;2023-04-25T04:40:22;6.00;1.00
24450;DHT22;13349;50.984;5.822;2023-04-25T04:42:51;6.00;1.00
24450;DHT22;13349;50.984;5.822;2023-04-25T04:45:18;6.00;1.00
24450;DHT22;13349;50.984;5.822;2023-04-25T04:47:47;6.00;1.00
24450;DHT22;13349;50.984;5.822;2023-04-25T04:50:15;6.00;99.90
24450;DHT22;13349;50.984;5.822;2023-04-25T04:52:42;6.00;99.90
24450;DHT22;13349;50.984;5.822;2023-04-25T04:55:08;6.00;99.90
24450;DHT22;13349;50.984;5.822;2023-04-25T04:57:35;6.00;99.90
24450;DHT22;13349;50.984;5.822;2023-04-25T05:00:04;6.00;1.00
24450;DHT22;13349;50.984;5.822;2023-04-25T05:02:32;6.00;1.00
24450;DHT22;13349;50.984;5.822;2023-04-25T05:05:01;6.00;1.00
24450;DHT22;13349;50.984;5.822;2023-04-25T05:07:27;6.10;1.00
24450;DHT22;13349;50.984;5.822;2023-04-25T05:09:54;6.10;1.00
24450;DHT22;13349;50.984;5.822;2023-04-25T05:12:21;6.10;1.00
24450;DHT22;13349;50.984;5.822;2023-04-25T05:14:48;6.10;1.00
24450;DHT22;13349;50.984;5.822;2023-04-25T05:17:15;6.10;1.00
24450;DHT22;13349;50.984;5.822;2023-04-25T05:19:42;6.20;99.90
24450;DHT22;13349;50.984;5.822;2023-04-25T05:22:10;6.20;91.90
24450;DHT22;13349;50.984;5.822;2023-04-25T05:24:37;6.30;1.00
24450;DHT22;13349;50.984;5.822;2023-04-25T05:27:04;6.40;1.00
24450;DHT22;13349;50.984;5.822;2023-04-25T05:29:31;6.50;99.90
24450;DHT22;13349;50.984;5.822;2023-04-25T05:31:58;6.60;99.90
24450;DHT22;13349;50.984;5.822;2023-04-25T05:34:25;6.70;1.00
24450;DHT22;13349;50.984;5.822;2023-04-25T05:36:52;6.80;99.90
24450;DHT22;13349;50.984;5.822;2023-04-25T05:39:20;6.90;9.10
24450;DHT22;13349;50.984;5.822;2023-04-25T05:41:47;7.00;1.00
24450;DHT22;13349;50.984;5.822;2023-04-25T05:44:14;7.10;1.00
24450;DHT22;13349;50.984;5.822;2023-04-25T05:46:41;7.10;99.90
24450;DHT22;13349;50.984;5.822;2023-04-25T05:49:08;7.20;29.00
24450;DHT22;13349;50.984;5.822;2023-04-25T05:51:35;7.20;1.00
24450;DHT22;13349;50.984;5.822;2023-04-25T05:54:01;7.30;1.00
24450;DHT22;13349;50.984;5.822;2023-04-25T05:56:30;7.30;99.90
24450;DHT22;13349;50.984;5.822;2023-04-25T05:58:56;7.40;1.00
24450;DHT22;13349;50.984;5.822;2023-04-25T06:01:23;7.40;1.00
24450;DHT22;13349;50.984;5.822;2023-04-25T06:03:50;7.50;1.00
24450;DHT22;13349;50.984;5.822;2023-04-25T06:06:18;7.70;1.00
24450;DHT22;13349;50.984;5.822;2023-04-25T06:08:44;7.90;99.90
24450;DHT22;13349;50.984;5.822;2023-04-25T06:11:11;8.00;99.90
24450;DHT22;13349;50.984;5.822;2023-04-25T06:13:39;8.10;1.00
24450;DHT22;13349;50.984;5.822;2023-04-25T06:16:06;8.10;1.00
24450;DHT22;13349;50.984;5.822;2023-04-25T06:18:33;8.10;1.00
24450;DHT22;13349;50.984;5.822;2023-04-25T06:21:00;8.20;1.00
24450;DHT22;13349;50.984;5.822;2023-04-25T06:23:27;8.30;99.90
24450;DHT22;13349;50.984;5.822;2023-04-25T06:25:54;8.60;99.90
24450;DHT22;13349;50.984;5.822;2023-04-25T06:28:21;8.80;99.90
24450;DHT22;13349;50.984;5.822;2023-04-25T06:30:51;8.90;1.00
24450;DHT22;13349;50.984;5.822;2023-04-25T06:33:18;8.90;1.00
24450;DHT22;13349;50.984;5.822;2023-04-25T06:35:45;8.90;1.00
24450;DHT22;13349;50.984;5.822;2023-04-25T06:38:12;8.80;1.00
24450;DHT22;13349;50.984;5.822;2023-04-25T06:40:39;8.60;99.90
24450;DHT22;13349;50.984;5.822;2023-04-25T06:43:06;8.80;99.90
24450;DHT22;13349;50.984;5.822;2023-04-25T06:45:32;8.80;99.90
24450;DHT22;13349;50.984;5.822;2023-04-25T06:48:01;8.80;99.90
24450;DHT22;13349;50.984;5.822;2023-04-25T06:50:28;8.90;99.90
24450;DHT22;13349;50.984;5.822;2023-04-25T06:52:54;8.70;99.90
24450;DHT22;13349;50.984;5.822;2023-04-25T06:55:21;8.70;99.90
24450;DHT22;13349;50.984;5.822;2023-04-25T06:57:48;8.70;24.30
24450;DHT22;13349;50.984;5.822;2023-04-25T07:00:15;8.60;3.60
24450;DHT22;13349;50.984;5.822;2023-04-25T07:02:42;8.60;1.00
24450;DHT22;13349;50.984;5.822;2023-04-25T07:05:11;8.70;1.00
24450;DHT22;13349;50.984;5.822;2023-04-25T07:07:38;8.60;1.00
24450;DHT22;13349;50.984;5.822;2023-04-25T07:10:05;8.70;1.00
24450;DHT22;13349;50.984;5.822;2023-04-25T07:12:32;8.90;1.00
24450;DHT22;13349;50.984;5.822;2023-04-25T07:14:59;9.20;1.00
24450;DHT22;13349;50.984;5.822;2023-04-25T07:17:31;9.30;1.00
24450;DHT22;13349;50.984;5.822;2023-04-25T07:19:58;9.10;1.00
24450;DHT22;13349;50.984;5.822;2023-04-25T07:22:27;9.30;1.00
24450;DHT22;13349;50.984;5.822;2023-04-25T07:24:54;9.40;1.00
24450;DHT22;13349;50.984;5.822;2023-04-25T07:27:20;9.60;1.00
24450;DHT22;13349;50.984;5.822;2023-04-25T07:29:47;9.50;1.00
24450;DHT22;13349;50.984;5.822;2023-04-25T07:32:14;9.50;1.00
24450;DHT22;13349;50.984;5.822;2023-04-25T07:34:41;9.30;1.00
24450;DHT22;13349;50.984;5.822;2023-04-25T07:37:08;9.50;1.00
24450;DHT22;13349;50.984;5.822;2023-04-25T07:39:36;9.40;1.00
24450;DHT22;13349;50.984;5.822;2023-04-25T07:42:03;9.40;99.90
24450;DHT22;13349;50.984;5.822;2023-04-25T07:44:33;9.40;99.90
24450;DHT22;13349;50.984;5.822;2023-04-25T07:47:04;9.40;99.90
24450;DHT22;13349;50.984;5.822;2023-04-25T07:49:32;9.40;99.90
24450;DHT22;13349;50.984;5.822;2023-04-25T07:51:59;9.30;99.90
24450;DHT22;13349;50.984;5.822;2023-04-25T07:54:26;9.30;99.90
24450;DHT22;13349;50.984;5.822;2023-04-25T07:56:54;9.70;99.90
24450;DHT22;13349;50.984;5.822;2023-04-25T07:59:21;9.90;99.90
24450;DHT22;13349;50.984;5.822;2023-04-25T08:01:48;10.00;99.90
24450;DHT22;13349;50.984;5.822;2023-04-25T08:04:15;9.90;99.90
24450;DHT22;13349;50.984;5.822;2023-04-25T08:06:42;10.20;99.90
24450;DHT22;13349;50.984;5.822;2023-04-25T08:09:09;10.10;99.90
24450;DHT22;13349;50.984;5.822;2023-04-25T08:11:36;10.40;99.90
24450;DHT22;13349;50.984;5.822;2023-04-25T08:14:04;10.70;99.90
24450;DHT22;13349;50.984;5.822;2023-04-25T08:16:31;10.50;99.90
24450;DHT22;13349;50.984;5.822;2023-04-25T08:18:58;10.30;99.90
24450;DHT22;13349;50.984;5.822;2023-04-25T08:21:25;10.30;99.90
24450;DHT22;13349;50.984;5.822;2023-04-25T08:23:53;10.40;99.90
24450;DHT22;13349;50.984;5.822;2023-04-25T08:26:20;10.50;99.90
24450;DHT22;13349;50.984;5.822;2023-04-25T08:28:47;10.80;99.90
24450;DHT22;13349;50.984;5.822;2023-04-25T08:31:15;10.90;99.90
24450;DHT22;13349;50.984;5.822;2023-04-25T08:33:42;10.50;28.10
24450;DHT22;13349;50.984;5.822;2023-04-25T08:36:10;10.50;27.30
24450;DHT22;13349;50.984;5.822;2023-04-25T08:38:37;10.60;36.70
24450;DHT22;13349;50.984;5.822;2023-04-25T08:41:04;11.00;21.90
24450;DHT22;13349;50.984;5.822;2023-04-25T08:43:32;11.20;1.00
24450;DHT22;13349;50.984;5.822;2023-04-25T08:45:59;10.80;1.00
24450;DHT22;13349;50.984;5.822;2023-04-25T08:48:28;10.30;1.00
24450;DHT22;13349;50.984;5.822;2023-04-25T08:50:55;10.00;1.00
24450;DHT22;13349;50.984;5.822;2023-04-25T08:53:25;10.40;1.00
24450;DHT22;13349;50.984;5.822;2023-04-25T08:55:52;10.60;1.00
24450;DHT22;13349;50.984;5.822;2023-04-25T08:58:20;10.40;1.00
24450;DHT22;13349;50.984;5.822;2023-04-25T09:00:47;10.50;1.00
24450;DHT22;13349;50.984;5.822;2023-04-25T09:03:15;10.60;1.00
24450;DHT22;13349;50.984;5.822;2023-04-25T09:05:43;10.70;1.00
24450;DHT22;13349;50.984;5.822;2023-04-25T09:08:10;11.10;1.00
24450;DHT22;13349;50.984;5.822;2023-04-25T09:10:37;11.00;1.00
24450;DHT22;13349;50.984;5.822;2023-04-25T09:13:05;11.10;1.00
24450;DHT22;13349;50.984;5.822;2023-04-25T09:15:39;11.10;1.00
24450;DHT22;13349;50.984;5.822;2023-04-25T09:18:12;11.10;1.00
24450;DHT22;13349;50.984;5.822;2023-04-25T09:20:41;11.20;1.00
24450;DHT22;13349;50.984;5.822;2023-04-25T09:23:09;11.20;1.00
24450;DHT22;13349;50.984;5.822;2023-04-25T09:25:37;11.40;1.00
24450;DHT22;13349;50.984;5.822;2023-04-25T09:28:05;11.50;1.00
24450;DHT22;13349;50.984;5.822;2023-04-25T09:30:32;10.90;1.00
24450;DHT22;13349;50.984;5.822;2023-04-25T09:33:03;10.80;1.00
24450;DHT22;13349;50.984;5.822;2023-04-25T09:35:34;10.40;1.00
24450;DHT22;13349;50.984;5.822;2023-04-25T09:38:01;10.20;1.00
24450;DHT22;13349;50.984;5.822;2023-04-25T09:40:30;10.40;1.00
24450;DHT22;13349;50.984;5.822;2023-04-25T09:42:56;10.40;1.00
24450;DHT22;13349;50.984;5.822;2023-04-25T09:45:24;10.30;1.00
24450;DHT22;13349;50.984;5.822;2023-04-25T09:47:55;10.30;1.00
24450;DHT22;13349;50.984;5.822;2023-04-25T09:50:23;10.30;1.00
24450;DHT22;13349;50.984;5.822;2023-04-25T09:53:02;10.60;1.00
24450;DHT22;13349;50.984;5.822;2023-04-25T09:55:31;10.50;1.00
24450;DHT22;13349;50.984;5.822;2023-04-25T09:57:59;10.50;1.00
24450;DHT22;13349;50.984;5.822;2023-04-25T10:00:28;10.60;1.00
24450;DHT22;13349;50.984;5.822;2023-04-25T10:02:56;10.70;1.00
24450;DHT22;13349;50.984;5.822;2023-04-25T10:05:24;11.00;1.00
24450;DHT22;13349;50.984;5.822;2023-04-25T10:07:51;10.90;1.00
24450;DHT22;13349;50.984;5.822;2023-04-25T10:10:19;11.40;1.00
24450;DHT22;13349;50.984;5.822;2023-04-25T10:12:52;12.80;1.00
24450;DHT22;13349;50.984;5.822;2023-04-25T10:15:19;14.10;1.00
24450;DHT22;13349;50.984;5.822;2023-04-25T10:17:47;13.20;1.00
24450;DHT22;13349;50.984;5.822;2023-04-25T10:20:15;12.20;1.00
24450;DHT22;13349;50.984;5.822;2023-04-25T10:22:42;11.20;1.00
24450;DHT22;13349;50.984;5.822;2023-04-25T10:25:10;11.00;1.00
24450;DHT22;13349;50.984;5.822;2023-04-25T10:27:38;10.40;1.00
24450;DHT22;13349;50.984;5.822;2023-04-25T10:30:07;10.00;1.00
24450;DHT22;13349;50.984;5.822;2023-04-25T10:32:36;9.90;1.00
24450;DHT22;13349;50.984;5.822;2023-04-25T10:35:13;9.70;1.00
24450;DHT22;13349;50.984;5.822;2023-04-25T10:37:56;9.50;1.00
24450;DHT22;13349;50.984;5.822;2023-04-25T10:40:23;9.50;1.00
24450;DHT22;13349;50.984;5.822;2023-04-25T10:42:51;9.40;1.00
24450;DHT22;13349;50.984;5.822;2023-04-25T10:45:20;9.50;1.00
24450;DHT22;13349;50.984;5.822;2023-04-25T10:47:46;9.50;1.00
24450;DHT22;13349;50.984;5.822;2023-04-25T10:50:14;9.60;1.00
24450;DHT22;13349;50.984;5.822;2023-04-25T10:52:41;9.90;1.00
24450;DHT22;13349;50.984;5.822;2023-04-25T10:55:08;10.20;1.00
24450;DHT22;13349;50.984;5.822;2023-04-25T10:57:36;10.50;1.00
24450;DHT22;13349;50.984;5.822;2023-04-25T11:00:10;11.00;1.00
24450;DHT22;13349;50.984;5.822;2023-04-25T11:02:42;11.00;1.00
24450;DHT22;13349;50.984;5.822;2023-04-25T11:05:10;11.00;1.00
24450;DHT22;13349;50.984;5.822;2023-04-25T11:07:44;11.00;1.00
24450;DHT22;13349;50.984;5.822;2023-04-25T11:10:12;10.80;1.00
24450;DHT22;13349;50.984;5.822;2023-04-25T11:12:40;10.90;1.00
24450;DHT22;13349;50.984;5.822;2023-04-25T11:15:08;11.30;1.00
24450;DHT22;13349;50.984;5.822;2023-04-25T11:17:35;11.50;1.00
24450;DHT22;13349;50.984;5.822;2023-04-25T11:20:04;11.70;1.00
24450;DHT22;13349;50.984;5.822;2023-04-25T11:22:37;12.10;1.00
24450;DHT22;13349;50.984;5.822;2023-04-25T11:25:05;12.70;1.00
24450;DHT22;13349;50.984;5.822;2023-04-25T11:27:32;12.60;1.00
24450;DHT22;13349;50.984;5.822;2023-04-25T11:30:09;12.50;1.00
24450;DHT22;13349;50.984;5.822;2023-04-25T11:32:36;12.80;1.00
24450;DHT22;13349;50.984;5.822;2023-04-25T11:35:05;12.80;1.00
24450;DHT22;13349;50.984;5.822;2023-04-25T11:37:32;12.80;1.00
24450;DHT22;13349;50.984;5.822;2023-04-25T11:39:59;13.80;1.00
24450;DHT22;13349;50.984;5.822;2023-04-25T11:42:26;13.80;1.00
24450;DHT22;13349;50.984;5.822;2023-04-25T11:44:53;13.30;1.00
24450;DHT22;13349;50.984;5.822;2023-04-25T11:47:20;13.30;1.00
24450;DHT22;13349;50.984;5.822;2023-04-25T11:49:53;13.10;1.00
24450;DHT22;13349;50.984;5.822;2023-04-25T11:52:22;12.60;1.00
24450;DHT22;13349;50.984;5.822;2023-04-25T11:54:49;13.10;1.00
24450;DHT22;13349;50.984;5.822;2023-04-25T11:57:18;13.00;1.00
24450;DHT22;13349;50.984;5.822;2023-04-25T11:59:45;13.10;1.00
24450;DHT22;13349;50.984;5.822;2023-04-25T12:02:24;13.00;1.00
24450;DHT22;13349;50.984;5.822;2023-04-25T12:04:51;13.90;1.00
24450;DHT22;13349;50.984;5.822;2023-04-25T12:07:17;15.00;1.00
24450;DHT22;13349;50.984;5.822;2023-04-25T12:09:51;14.30;1.00
24450;DHT22;13349;50.984;5.822;2023-04-25T12:12:18;13.70;1.00
24450;DHT22;13349;50.984;5.822;2023-04-25T12:14:46;13.60;1.00
24450;DHT22;13349;50.984;5.822;2023-04-25T12:17:13;14.00;1.00
24450;DHT22;13349;50.984;5.822;2023-04-25T12:19:40;13.10;1.00
24450;DHT22;13349;50.984;5.822;2023-04-25T12:22:19;13.30;1.00
24450;DHT22;13349;50.984;5.822;2023-04-25T12:24:46;13.80;1.00
24450;DHT22;13349;50.984;5.822;2023-04-25T12:27:15;13.90;1.00
24450;DHT22;13349;50.984;5.822;2023-04-25T12:29:50;14.20;1.00
24450;DHT22;13349;50.984;5.822;2023-04-25T12:32:17;14.40;1.00
24450;DHT22;13349;50.984;5.822;2023-04-25T12:34:44;15.10;1.00
24450;DHT22;13349;50.984;5.822;2023-04-25T12:37:11;15.40;1.00
24450;DHT22;13349;50.984;5.822;2023-04-25T12:39:38;15.30;1.00
24450;DHT22;13349;50.984;5.822;2023-04-25T12:42:05;14.50;1.00
24450;DHT22;13349;50.984;5.822;2023-04-25T12:44:34;14.40;1.00
24450;DHT22;13349;50.984;5.822;2023-04-25T12:47:01;13.60;1.00
24450;DHT22;13349;50.984;5.822;2023-04-25T12:49:28;12.60;1.00
24450;DHT22;13349;50.984;5.822;2023-04-25T12:51:55;12.00;1.00
24450;DHT22;13349;50.984;5.822;2023-04-25T12:54:22;11.30;1.00
24450;DHT22;13349;50.984;5.822;2023-04-25T12:56:50;10.80;1.00
24450;DHT22;13349;50.984;5.822;2023-04-25T12:59:16;10.40;1.00
24450;DHT22;13349;50.984;5.822;2023-04-25T13:01:45;10.10;1.00
24450;DHT22;13349;50.984;5.822;2023-04-25T13:04:12;9.90;1.00
24450;DHT22;13349;50.984;5.822;2023-04-25T13:06:39;10.10;1.00
24450;DHT22;13349;50.984;5.822;2023-04-25T13:09:05;10.50;1.00
24450;DHT22;13349;50.984;5.822;2023-04-25T13:11:33;10.90;1.00
24450;DHT22;13349;50.984;5.822;2023-04-25T13:14:00;11.50;1.00
24450;DHT22;13349;50.984;5.822;2023-04-25T13:16:27;11.60;1.00
24450;DHT22;13349;50.984;5.822;2023-04-25T13:18:55;11.70;1.00
24450;DHT22;13349;50.984;5.822;2023-04-25T13:21:22;11.80;1.00
24450;DHT22;13349;50.984;5.822;2023-04-25T13:23:49;11.70;1.00
24450;DHT22;13349;50.984;5.822;2023-04-25T13:26:16;11.80;1.00
24450;DHT22;13349;50.984;5.822;2023-04-25T13:28:43;12.00;1.00
24450;DHT22;13349;50.984;5.822;2023-04-25T13:31:10;12.40;1.00
24450;DHT22;13349;50.984;5.822;2023-04-25T13:33:37;13.00;1.00
24450;DHT22;13349;50.984;5.822;2023-04-25T13:36:05;14.10;1.00
24450;DHT22;13349;50.984;5.822;2023-04-25T13:38:32;14.50;1.00
24450;DHT22;13349;50.984;5.822;2023-04-25T13:40:59;14.00;1.00
24450;DHT22;13349;50.984;5.822;2023-04-25T13:43:26;14.20;1.00
24450;DHT22;13349;50.984;5.822;2023-04-25T13:45:53;14.00;1.00
24450;DHT22;13349;50.984;5.822;2023-04-25T13:48:20;13.20;1.00
24450;DHT22;13349;50.984;5.822;2023-04-25T13:50:48;12.90;1.00
24450;DHT22;13349;50.984;5.822;2023-04-25T13:53:16;12.00;1.00
24450;DHT22;13349;50.984;5.822;2023-04-25T13:55:43;11.60;1.00
24450;DHT22;13349;50.984;5.822;2023-04-25T13:58:10;11.50;1.00
24450;DHT22;13349;50.984;5.822;2023-04-25T14:00:37;11.30;1.00
24450;DHT22;13349;50.984;5.822;2023-04-25T14:03:05;11.20;1.00
24450;DHT22;13349;50.984;5.822;2023-04-25T14:05:33;11.20;1.00
24450;DHT22;13349;50.984;5.822;2023-04-25T14:08:04;10.90;1.00
24450;DHT22;13349;50.984;5.822;2023-04-25T14:10:32;10.70;1.00
24450;DHT22;13349;50.984;5.822;2023-04-25T14:12:59;10.60;1.00
24450;DHT22;13349;50.984;5.822;2023-04-25T14:15:28;10.80;1.00
24450;DHT22;13349;50.984;5.822;2023-04-25T14:17:56;11.10;1.00
24450;DHT22;13349;50.984;5.822;2023-04-25T14:20:22;11.30;1.00
24450;DHT22;13349;50.984;5.822;2023-04-25T14:22:51;11.30;1.00
24450;DHT22;13349;50.984;5.822;2023-04-25T14:25:19;11.70;1.00
24450;DHT22;13349;50.984;5.822;2023-04-25T14:27:48;11.90;1.00
24450;DHT22;13349;50.984;5.822;2023-04-25T14:30:15;13.00;1.00
24450;DHT22;13349;50.984;5.822;2023-04-25T14:32:42;13.80;1.00
24450;DHT22;13349;50.984;5.822;2023-04-25T14:35:09;13.70;1.00
24450;DHT22;13349;50.984;5.822;2023-04-25T14:37:36;14.00;1.00
24450;DHT22;13349;50.984;5.822;2023-04-25T14:40:03;13.30;1.00
24450;DHT22;13349;50.984;5.822;2023-04-25T14:42:30;12.60;1.00
24450;DHT22;13349;50.984;5.822;2023-04-25T14:44:59;12.50;1.00
24450;DHT22;13349;50.984;5.822;2023-04-25T14:47:26;12.40;1.00
24450;DHT22;13349;50.984;5.822;2023-04-25T14:49:53;12.40;1.00
24450;DHT22;13349;50.984;5.822;2023-04-25T14:52:20;12.40;1.00
24450;DHT22;13349;50.984;5.822;2023-04-25T14:54:47;12.40;1.00
24450;DHT22;13349;50.984;5.822;2023-04-25T14:57:14;12.60;1.00
24450;DHT22;13349;50.984;5.822;2023-04-25T14:59:42;13.20;1.00
24450;DHT22;13349;50.984;5.822;2023-04-25T15:02:10;14.10;1.00
24450;DHT22;13349;50.984;5.822;2023-04-25T15:04:37;14.60;1.00
24450;DHT22;13349;50.984;5.822;2023-04-25T15:07:04;13.10;1.00
24450;DHT22;13349;50.984;5.822;2023-04-25T15:09:31;12.40;1.00
24450;DHT22;13349;50.984;5.822;2023-04-25T15:11:58;12.90;1.00
24450;DHT22;13349;50.984;5.822;2023-04-25T15:14:25;13.00;1.00
24450;DHT22;13349;50.984;5.822;2023-04-25T15:16:51;12.70;1.00
24450;DHT22;13349;50.984;5.822;2023-04-25T15:19:20;12.90;1.00
24450;DHT22;13349;50.984;5.822;2023-04-25T15:21:47;13.20;1.00
24450;DHT22;13349;50.984;5.822;2023-04-25T15:24:14;13.40;1.00
24450;DHT22;13349;50.984;5.822;2023-04-25T15:26:41;13.30;1.00
24450;DHT22;13349;50.984;5.822;2023-04-25T15:29:08;13.30;1.00
24450;DHT22;13349;50.984;5.822;2023-04-25T15:31:35;14.00;1.00
24450;DHT22;13349;50.984;5.822;2023-04-25T15:34:02;14.00;1.00
24450;DHT22;13349;50.984;5.822;2023-04-25T15:36:31;13.60;1.00
24450;DHT22;13349;50.984;5.822;2023-04-25T15:38:58;12.90;1.00
24450;DHT22;13349;50.984;5.822;2023-04-25T15:41:25;13.50;1.00
24450;DHT22;13349;50.984;5.822;2023-04-25T15:43:51;14.10;1.00
24450;DHT22;13349;50.984;5.822;2023-04-25T15:46:19;14.20;1.00
24450;DHT22;13349;50.984;5.822;2023-04-25T15:48:46;14.30;1.00
24450;DHT22;13349;50.984;5.822;2023-04-25T15:51:13;13.70;1.00